Brookville, New York
Current Conditions -  °F | °C
As of 6:53 PM on Sunday 21 Dec 2014 (Local Time) from KFRG Reporting Station
Overcast Overcast  
Wind Chill: 32°   Ceiling: 700
Heat Index: 36°   Visibility: 8mi
Dew Point: 32°   Wind: 5mph
Humidity: 86%   Direction: 360°N
Pressure: 30.33"   Gusts: NA
Location:  40.8159°N, 73.6224°W
Report Text: KFRG 212353Z 36004KT 8SM OVC007 02/00 A3033 RMK AO2 SLP270 T00220000 10028 20017 53014
Loading
Personal Weather Stations






























Interactive Weather Map New forecast layout! Learn more

10-Day Weather Forecast

Advertisements
Track Severe Weather on mobile